Time;durP1;ratioP1;P1;durP2;ratioP2;P2;SDS_P1;SDS_P2;PMS_P1;PMS_P2;Temp;Humidity;BMP_temperature;BMP_pressure;BME280_temperature;BME280_humidity;BME280_pressure;Samples;Min_cycle;Max_cycle;Signal;HPM_P1;HPM_P2
2023/07/30 00:01:53;;;;;;;60.97;58.87;;;21.30;99.90;;;;;;5029748;28;20255;-64
2023/07/30 00:04:20;;;;;;;29.55;28.50;;;21.30;99.90;;;;;;5029258;28;20204;-64
2023/07/30 00:06:47;;;;;;;49.90;48.17;;;21.30;99.90;;;;;;5034838;28;20207;-64
2023/07/30 00:09:15;;;;;;;55.87;53.93;;;21.30;99.90;;;;;;5047548;28;20704;-65
2023/07/30 00:11:43;;;;;;;69.13;66.73;;;21.30;99.90;;;;;;5050842;28;20708;-65
2023/07/30 00:14:10;;;;;;;77.33;74.67;;;21.20;99.90;;;;;;5048846;28;20208;-64
2023/07/30 00:16:36;;;;;;;59.88;57.83;;;21.20;99.90;;;;;;5049266;28;20678;-64
2023/07/30 00:19:04;;;;;;;58.75;56.67;;;21.20;99.90;;;;;;5053183;28;20235;-64
2023/07/30 00:21:31;;;;;;;51.17;49.38;;;21.20;99.90;;;;;;5053387;28;20203;-64
2023/07/30 00:23:58;;;;;;;53.70;51.80;;;21.10;99.90;;;;;;5053831;28;20211;-70
2023/07/30 00:26:26;;;;;;;67.77;65.40;;;21.00;99.90;;;;;;5054132;28;20204;-63
2023/07/30 00:28:53;;;;;;;65.30;63.03;;;20.90;99.90;;;;;;5054558;28;20322;-65
2023/07/30 00:31:20;;;;;;;54.13;52.28;;;20.90;99.90;;;;;;5050016;28;20214;-63
2023/07/30 00:33:46;;;;;;;52.42;50.58;;;20.90;99.90;;;;;;5052638;28;20681;-64
2023/07/30 00:36:13;;;;;;;32.70;31.60;;;20.90;99.90;;;;;;5051904;28;20208;-65
2023/07/30 00:38:40;;;;;;;32.17;31.03;;;20.80;99.90;;;;;;5054444;28;20311;-65
2023/07/30 00:41:07;;;;;;;80.23;77.43;;;20.80;99.90;;;;;;5054830;28;20210;-64
2023/07/30 00:43:35;;;;;;;66.03;63.73;;;20.90;99.90;;;;;;5055584;28;20307;-63
2023/07/30 00:46:02;;;;;;;34.30;33.10;;;20.90;99.90;;;;;;5057842;28;20204;-63
2023/07/30 00:48:29;;;;;;;37.93;36.57;;;20.80;99.90;;;;;;5059117;28;20243;-63
2023/07/30 00:50:58;;;;;;;47.88;46.17;;;20.80;99.90;;;;;;5054976;28;20235;-63
2023/07/30 00:53:26;;;;;;;35.85;34.58;;;20.80;99.90;;;;;;5052969;28;20302;-65
2023/07/30 00:55:52;;;;;;;57.83;55.83;;;20.70;99.90;;;;;;5052690;28;20215;-64
2023/07/30 00:58:21;;;;;;;49.30;47.60;;;20.70;99.90;;;;;;5052785;28;20208;-64
2023/07/30 01:00:49;;;;;;;36.33;35.05;;;20.80;99.90;;;;;;5052074;28;20554;-64
2023/07/30 01:03:16;;;;;;;42.55;41.05;;;20.70;99.90;;;;;;5052854;28;20203;-64
2023/07/30 01:05:43;;;;;;;39.17;37.80;;;20.70;99.90;;;;;;5054073;28;20204;-65
2023/07/30 01:08:10;;;;;;;28.30;27.30;;;20.70;99.90;;;;;;5052719;28;20216;-65
2023/07/30 01:10:38;;;;;;;23.60;22.73;;;20.70;99.90;;;;;;5051844;28;20236;-62
2023/07/30 01:13:06;;;;;;;18.67;17.97;;;20.70;99.90;;;;;;5052214;28;20215;-64
2023/07/30 01:15:33;;;;;;;21.13;20.37;;;20.60;99.90;;;;;;5053234;28;20208;-65
2023/07/30 01:18:01;;;;;;;21.65;20.90;;;20.60;99.90;;;;;;5052730;28;20200;-64
2023/07/30 01:20:31;;;;;;;33.20;32.03;;;20.60;99.90;;;;;;5082828;22;20223;-67
2023/07/30 01:22:59;;;;;;;24.37;23.53;;;20.60;99.90;;;;;;5053396;28;20269;-67
2023/07/30 01:25:30;;;;;;;38.97;37.60;;;20.60;99.90;;;;;;5053622;28;20222;-67
2023/07/30 01:28:02;;;;;;;23.75;22.88;;;20.60;99.90;;;;;;5054044;28;20254;-67
2023/07/30 01:30:33;;;;;;;36.57;35.33;;;20.60;99.90;;;;;;5067146;28;20581;-70
2023/07/30 01:33:00;;;;;;;20.90;20.17;;;20.60;99.90;;;;;;5073553;28;20909;-67
2023/07/30 01:35:28;;;;;;;22.73;21.93;;;20.60;99.90;;;;;;5073277;28;20583;-68
2023/07/30 01:37:56;;;;;;;33.47;32.30;;;20.60;99.90;;;;;;5073327;28;20211;-66
2023/07/30 01:40:24;;;;;;;48.03;46.37;;;20.40;99.90;;;;;;5070928;28;20583;-66
2023/07/30 01:42:51;;;;;;;59.83;57.70;;;20.40;99.90;;;;;;5072532;28;20235;-68
2023/07/30 01:45:18;;;;;;;52.47;50.60;;;20.40;99.90;;;;;;5072220;28;20206;-66
2023/07/30 01:47:45;;;;;;;48.42;46.72;;;20.40;99.90;;;;;;5072129;28;20261;-67
2023/07/30 01:50:12;;;;;;;54.63;52.63;;;20.30;99.90;;;;;;5070719;28;20780;-68
2023/07/30 01:52:39;;;;;;;58.80;56.73;;;20.30;99.90;;;;;;5067566;28;20207;-67
2023/07/30 01:55:07;;;;;;;42.10;40.67;;;20.20;99.90;;;;;;5063191;28;20262;-66
2023/07/30 01:57:35;;;;;;;45.50;43.93;;;20.20;99.90;;;;;;5051812;28;20204;-68
2023/07/30 02:00:03;;;;;;;38.10;36.75;;;20.20;99.90;;;;;;5050852;28;20319;-66
2023/07/30 02:02:29;;;;;;;15.77;15.23;;;20.30;99.90;;;;;;5051082;28;20239;-66
2023/07/30 02:04:56;;;;;;;21.10;20.33;;;20.30;99.90;;;;;;5051822;28;20214;-67
2023/07/30 02:07:23;;;;;;;37.23;35.93;;;20.30;99.90;;;;;;5050782;28;20590;-68
2023/07/30 02:09:50;;;;;;;31.73;30.60;;;20.30;99.90;;;;;;5049202;28;20224;-69
2023/07/30 02:12:17;;;;;;;29.57;28.50;;;20.30;99.90;;;;;;5052467;28;20226;-68
2023/07/30 02:14:45;;;;;;;13.00;12.60;;;20.30;99.90;;;;;;5052546;28;20214;-67
2023/07/30 02:17:12;;;;;;;15.33;14.80;;;20.30;99.90;;;;;;5052633;28;20218;-66
2023/07/30 02:19:39;;;;;;;14.87;14.37;;;20.40;99.90;;;;;;5050647;28;20720;-67
2023/07/30 02:22:06;;;;;;;18.38;17.75;;;20.40;99.90;;;;;;5052337;28;20214;-67
2023/07/30 02:24:33;;;;;;;30.57;29.47;;;20.40;99.90;;;;;;5052229;28;20208;-65
2023/07/30 02:26:59;;;;;;;20.97;20.20;;;20.30;99.90;;;;;;5052631;28;20210;-66
2023/07/30 02:29:28;;;;;;;14.30;13.80;;;20.30;99.90;;;;;;5049617;28;20690;-66
2023/07/30 02:31:57;;;;;;;19.37;18.67;;;20.30;99.90;;;;;;5052315;28;20208;-68
2023/07/30 02:34:23;;;;;;;15.57;15.07;;;20.30;99.90;;;;;;5050301;28;20212;-68
2023/07/30 02:36:50;;;;;;;23.97;23.13;;;20.30;99.90;;;;;;5052644;28;20212;-65
2023/07/30 02:39:17;;;;;;;21.13;20.40;;;20.30;99.90;;;;;;5050794;28;20725;-66
2023/07/30 02:41:44;;;;;;;21.43;20.67;;;20.30;99.90;;;;;;5050497;28;20208;-66
2023/07/30 02:44:11;;;;;;;27.50;26.57;;;20.30;99.90;;;;;;5051224;28;20406;-66
2023/07/30 02:46:38;;;;;;;22.17;21.37;;;20.30;99.90;;;;;;5051091;28;20298;-66
2023/07/30 02:49:06;;;;;;;30.97;29.87;;;20.20;99.90;;;;;;5050437;28;20318;-67
2023/07/30 02:51:33;;;;;;;14.87;14.37;;;20.40;99.90;;;;;;5066562;28;20212;-67
2023/07/30 02:54:04;;;;;;;23.30;22.47;;;20.30;99.90;;;;;;5058644;28;20203;-67
2023/07/30 02:56:31;;;;;;;18.60;17.93;;;20.30;99.90;;;;;;5050805;28;20204;-66
2023/07/30 02:58:59;;;;;;;20.90;20.17;;;20.20;99.90;;;;;;5050861;28;20207;-67
2023/07/30 03:01:26;;;;;;;21.10;20.37;;;20.20;99.90;;;;;;5048743;28;20235;-65
2023/07/30 03:03:53;;;;;;;15.53;15.00;;;20.20;99.90;;;;;;5051721;28;20218;-66
2023/07/30 03:06:21;;;;;;;28.63;27.63;;;20.20;99.90;;;;;;5050941;28;20204;-67
2023/07/30 03:08:47;;;;;;;29.43;28.37;;;20.30;99.90;;;;;;5051454;28;20223;-68
2023/07/30 03:11:14;;;;;;;20.37;19.67;;;20.30;99.90;;;;;;5056223;28;20224;-63
2023/07/30 03:13:41;;;;;;;33.10;31.93;;;20.20;99.90;;;;;;5056352;28;20688;-67
2023/07/30 03:16:08;;;;;;;21.93;21.17;;;20.20;99.90;;;;;;5050887;28;20226;-67
2023/07/30 03:18:35;;;;;;;36.17;34.90;;;20.20;99.90;;;;;;5050436;28;20200;-67
2023/07/30 03:21:02;;;;;;;14.10;13.63;;;20.20;99.90;;;;;;5049282;28;20318;-68
2023/07/30 03:23:31;;;;;;;15.53;15.00;;;20.20;99.90;;;;;;5050069;28;20273;-68
2023/07/30 03:25:59;;;;;;;22.83;22.03;;;20.20;99.90;;;;;;5050159;28;20199;-69
2023/07/30 03:28:26;;;;;;;14.37;13.87;;;20.20;99.90;;;;;;5050061;28;20216;-67
2023/07/30 03:30:53;;;;;;;16.58;15.95;;;20.10;99.90;;;;;;5048953;28;20228;-67
2023/07/30 03:33:20;;;;;;;19.77;19.07;;;20.20;99.90;;;;;;5050881;28;20203;-69
2023/07/30 03:35:48;;;;;;;21.93;21.17;;;20.10;99.90;;;;;;5050789;28;20210;-67
2023/07/30 03:38:14;;;;;;;10.47;10.13;;;20.10;99.90;;;;;;5050861;28;20208;-68
2023/07/30 03:40:43;;;;;;;28.20;27.20;;;20.10;99.90;;;;;;5050268;28;20223;-68
2023/07/30 03:43:09;;;;;;;29.88;28.83;;;20.10;99.90;;;;;;5051130;28;20207;-66
2023/07/30 03:45:36;;;;;;;27.85;26.90;;;20.00;99.90;;;;;;5050863;28;20753;-68
2023/07/30 03:48:03;;;;;;;25.03;24.17;;;20.00;99.90;;;;;;5054550;28;20214;-67
2023/07/30 03:50:30;;;;;;;29.47;28.43;;;20.00;99.90;;;;;;5056797;28;20237;-66
2023/07/30 03:52:57;;;;;;;29.00;27.97;;;19.90;99.90;;;;;;5050617;28;20211;-69
2023/07/30 03:55:24;;;;;;;30.97;29.87;;;20.00;99.90;;;;;;5051146;28;20294;-66
2023/07/30 03:57:52;;;;;;;27.33;26.37;;;20.00;99.90;;;;;;5051114;28;20576;-67
2023/07/30 04:00:19;;;;;;;31.17;30.07;;;20.00;99.90;;;;;;5049895;28;20783;-70
2023/07/30 04:02:46;;;;;;;26.87;25.93;;;20.00;99.90;;;;;;5050556;28;20291;-67
2023/07/30 04:05:13;;;;;;;27.00;25.97;;;20.00;99.90;;;;;;5050828;28;20210;-67
2023/07/30 04:07:40;;;;;;;31.97;30.83;;;19.90;99.90;;;;;;5050941;28;20294;-65
2023/07/30 04:10:08;;;;;;;37.13;35.80;;;19.90;99.90;;;;;;5050127;28;20231;-66
2023/07/30 04:12:34;;;;;;;27.93;26.97;;;19.80;99.90;;;;;;5050520;28;20215;-66
2023/07/30 04:15:03;;;;;;;20.47;19.77;;;19.80;99.90;;;;;;5050843;28;20250;-68
2023/07/30 04:17:30;;;;;;;32.17;31.07;;;19.90;99.90;;;;;;5050545;28;20687;-66
2023/07/30 04:19:56;;;;;;;27.17;26.20;;;19.90;99.90;;;;;;5049745;28;20240;-67
2023/07/30 04:22:23;;;;;;;22.50;21.73;;;20.00;99.90;;;;;;5050757;28;20203;-68
2023/07/30 04:24:50;;;;;;;28.53;27.53;;;20.00;99.90;;;;;;5051190;28;20204;-69
2023/07/30 04:27:17;;;;;;;33.33;32.17;;;20.00;99.90;;;;;;5051022;28;20206;-68
2023/07/30 04:29:44;;;;;;;22.23;21.50;;;20.00;99.90;;;;;;5057875;28;20311;-66
2023/07/30 04:32:12;;;;;;;32.22;31.08;;;20.00;99.90;;;;;;5052378;28;20214;-64
2023/07/30 04:34:39;;;;;;;26.43;25.43;;;20.00;99.90;;;;;;5050609;28;20634;-66
2023/07/30 04:37:07;;;;;;;31.53;30.43;;;19.90;99.90;;;;;;5050825;28;20207;-66
2023/07/30 04:39:34;;;;;;;20.80;20.07;;;19.90;99.90;;;;;;5049417;28;20702;-66
2023/07/30 04:42:00;;;;;;;22.53;21.73;;;19.90;99.90;;;;;;5049617;28;20918;-67
2023/07/30 04:44:27;;;;;;;24.00;23.17;;;19.90;99.90;;;;;;5049526;28;20211;-69
2023/07/30 04:46:54;;;;;;;27.13;26.13;;;19.90;99.90;;;;;;5049499;28;20204;-67
2023/07/30 04:49:22;;;;;;;26.90;25.97;;;19.80;99.90;;;;;;5048254;28;20720;-65
2023/07/30 04:51:49;;;;;;;28.53;27.53;;;19.90;99.90;;;;;;5049404;28;20208;-67
2023/07/30 04:54:16;;;;;;;20.90;20.17;;;19.90;99.90;;;;;;5049127;28;20211;-66
2023/07/30 04:56:43;;;;;;;32.17;31.07;;;19.90;99.90;;;;;;5051139;28;20299;-65
2023/07/30 04:59:10;;;;;;;24.20;23.33;;;19.90;99.90;;;;;;5063966;28;20666;-64
2023/07/30 05:01:36;;;;;;;29.23;28.07;;;19.80;99.90;;;;;;5057670;28;20311;-68
2023/07/30 05:04:03;;;;;;;20.15;19.42;;;19.80;99.90;;;;;;5050418;28;20207;-65
2023/07/30 05:06:32;;;;;;;23.27;22.47;;;19.90;99.90;;;;;;5055369;28;20243;-69
2023/07/30 05:08:59;;;;;;;20.17;19.47;;;19.90;99.90;;;;;;5075543;28;20211;-67
2023/07/30 05:11:26;;;;;;;17.73;17.13;;;19.90;99.90;;;;;;5053979;28;20218;-67
2023/07/30 05:13:53;;;;;;;34.13;32.93;;;20.00;99.90;;;;;;5053890;28;20216;-66
2023/07/30 05:16:20;;;;;;;25.97;25.07;;;19.90;99.90;;;;;;5053979;28;20643;-67
2023/07/30 05:18:47;;;;;;;18.07;17.43;;;19.90;99.90;;;;;;5053910;28;20198;-68
2023/07/30 05:21:16;;;;;;;17.97;17.33;;;19.90;99.90;;;;;;5052707;28;20228;-67
2023/07/30 05:23:44;;;;;;;18.30;17.67;;;19.90;99.90;;;;;;5054726;28;20212;-64
2023/07/30 05:26:11;;;;;;;21.63;20.87;;;19.90;99.90;;;;;;5052468;28;20204;-69
2023/07/30 05:28:38;;;;;;;21.57;20.83;;;20.00;99.90;;;;;;5051621;28;20564;-65
2023/07/30 05:31:05;;;;;;;30.17;29.07;;;19.90;99.90;;;;;;5051638;28;20572;-67
2023/07/30 05:33:31;;;;;;;23.23;22.43;;;19.90;99.90;;;;;;5052361;28;20299;-68
2023/07/30 05:35:58;;;;;;;24.43;23.53;;;19.90;99.90;;;;;;5057205;28;20575;-65
2023/07/30 05:38:25;;;;;;;13.43;13.00;;;19.90;99.90;;;;;;5058163;28;20210;-66
2023/07/30 05:40:53;;;;;;;18.87;18.23;;;20.00;99.90;;;;;;5052826;28;20216;-69
2023/07/30 05:43:20;;;;;;;17.97;17.33;;;20.10;99.90;;;;;;5054354;28;20204;-66
2023/07/30 05:45:47;;;;;;;20.73;20.03;;;20.10;99.90;;;;;;5054299;28;20496;-69
2023/07/30 05:48:14;;;;;;;17.27;16.63;;;20.20;99.90;;;;;;5052193;28;20298;-67
2023/07/30 05:50:40;;;;;;;23.57;22.77;;;20.30;99.90;;;;;;5051121;28;20595;-67
2023/07/30 05:53:07;;;;;;;23.70;22.87;;;20.30;99.90;;;;;;5050758;28;20208;-65
2023/07/30 05:55:34;;;;;;;29.20;28.20;;;20.30;99.90;;;;;;5052785;28;20658;-68
2023/07/30 05:58:02;;;;;;;23.80;22.97;;;20.10;99.90;;;;;;5053327;28;20207;-67
2023/07/30 06:00:29;;;;;;;27.93;26.97;;;20.10;99.90;;;;;;5051865;28;20314;-67
2023/07/30 06:02:56;;;;;;;21.63;20.87;;;20.00;99.90;;;;;;5052420;28;20200;-69
2023/07/30 06:05:23;;;;;;;22.10;21.33;;;20.00;99.90;;;;;;5051168;28;20665;-68
2023/07/30 06:07:50;;;;;;;22.37;21.60;;;20.00;99.90;;;;;;5051664;28;20208;-68
2023/07/30 06:10:17;;;;;;;29.17;28.07;;;20.00;99.90;;;;;;5050779;28;20224;-68
2023/07/30 06:12:43;;;;;;;19.40;18.70;;;20.00;99.90;;;;;;5051305;28;20867;-70
2023/07/30 06:15:12;;;;;;;11.07;10.67;;;20.10;99.90;;;;;;5051173;28;20208;-68
2023/07/30 06:17:38;;;;;;;10.67;10.33;;;20.10;99.90;;;;;;5051783;28;20206;-68
2023/07/30 06:20:07;;;;;;;12.87;12.43;;;20.20;99.90;;;;;;5050831;28;20232;-65
2023/07/30 06:22:33;;;;;;;9.27;8.97;;;20.20;99.90;;;;;;5051791;28;20214;-64
2023/07/30 06:25:00;;;;;;;9.83;9.53;;;20.30;99.90;;;;;;5051764;28;20322;-67
2023/07/30 06:27:27;;;;;;;12.70;12.27;;;20.30;99.90;;;;;;5052495;28;20208;-69
2023/07/30 06:29:54;;;;;;;9.83;9.53;;;20.50;99.90;;;;;;5050445;28;20690;-67
2023/07/30 06:32:22;;;;;;;12.07;11.68;;;20.50;99.90;;;;;;5050356;28;20208;-67
2023/07/30 06:34:49;;;;;;;16.90;16.33;;;20.60;99.90;;;;;;5053012;28;20291;-68
2023/07/30 06:37:16;;;;;;;10.87;10.50;;;20.70;99.90;;;;;;5051283;28;20204;-66
2023/07/30 06:39:42;;;;;;;19.53;18.87;;;20.80;99.90;;;;;;5049991;28;20220;-66
2023/07/30 06:42:09;;;;;;;23.60;22.80;;;20.90;99.90;;;;;;5051348;28;20214;-67
2023/07/30 06:44:36;;;;;;;20.83;20.13;;;20.90;99.90;;;;;;5051060;28;20208;-67
2023/07/30 06:47:03;;;;;;;29.43;28.40;;;20.90;99.90;;;;;;5051146;28;20204;-68
2023/07/30 06:49:33;;;;;;;11.57;11.18;;;20.90;99.90;;;;;;5050121;28;20223;-67
2023/07/30 06:52:00;;;;;;;10.00;9.70;;;21.00;99.90;;;;;;5050882;28;20262;-67
2023/07/30 06:54:29;;;;;;;16.80;16.20;;;21.10;99.90;;;;;;5051969;28;20204;-69
2023/07/30 06:56:56;;;;;;;20.20;19.52;;;21.30;99.90;;;;;;5053759;28;20208;-67
2023/07/30 06:59:23;;;;;;;11.98;11.60;;;21.40;99.90;;;;;;5050904;28;20505;-68
2023/07/30 07:01:49;;;;;;;10.63;10.30;;;21.50;99.90;;;;;;5051421;28;20291;-69
2023/07/30 07:04:16;;;;;;;10.70;10.38;;;21.60;99.90;;;;;;5060063;28;20196;-65
2023/07/30 07:06:45;;;;;;;13.00;12.57;;;21.60;99.90;;;;;;5069407;28;20295;-68
2023/07/30 07:09:11;;;;;;;16.43;15.87;;;21.60;99.90;;;;;;5057991;28;20299;-66
2023/07/30 07:11:38;;;;;;;11.10;10.70;;;21.50;99.90;;;;;;5051614;28;20765;-67
2023/07/30 07:14:05;;;;;;;12.70;12.30;;;21.50;99.90;;;;;;5051672;28;20204;-68
2023/07/30 07:16:32;;;;;;;11.87;11.47;;;21.50;99.90;;;;;;5051805;28;20272;-67
2023/07/30 07:18:59;;;;;;;26.80;25.90;;;21.60;99.90;;;;;;5051675;28;20206;-67
2023/07/30 07:21:26;;;;;;;17.13;16.57;;;21.70;99.90;;;;;;5085361;22;20222;-64
2023/07/30 07:23:55;;;;;;;24.13;23.33;;;21.70;99.90;;;;;;5053720;28;20204;-64
2023/07/30 07:26:22;;;;;;;20.40;19.70;;;21.70;99.90;;;;;;5052969;28;20207;-66
2023/07/30 07:28:49;;;;;;;24.03;23.23;;;21.60;99.90;;;;;;5050590;28;20307;-65
2023/07/30 07:31:15;;;;;;;14.73;14.23;;;21.60;99.90;;;;;;5050551;28;20260;-66
2023/07/30 07:33:44;;;;;;;21.90;21.17;;;21.50;99.90;;;;;;5051599;28;20306;-64
2023/07/30 07:36:11;;;;;;;12.13;11.73;;;21.40;99.90;;;;;;5051615;28;20287;-65
2023/07/30 07:38:38;;;;;;;13.68;13.20;;;21.30;99.90;;;;;;5051409;28;20300;-65
2023/07/30 07:41:06;;;;;;;12.17;11.77;;;21.30;99.90;;;;;;5050800;28;20224;-65
2023/07/30 07:43:33;;;;;;;16.52;15.98;;;21.20;99.90;;;;;;5051858;28;20210;-65
2023/07/30 07:46:00;;;;;;;12.80;12.40;;;21.30;99.90;;;;;;5056434;28;20300;-65
2023/07/30 07:48:27;;;;;;;21.70;20.90;;;21.30;99.90;;;;;;5058132;28;20203;-64
2023/07/30 07:50:54;;;;;;;15.70;15.17;;;21.30;99.90;;;;;;5059705;28;20638;-65
2023/07/30 07:53:21;;;;;;;14.90;14.40;;;21.20;99.90;;;;;;5057657;28;20262;-65
2023/07/30 07:55:47;;;;;;;14.10;13.60;;;21.20;99.90;;;;;;5054467;28;20208;-65
2023/07/30 07:58:16;;;;;;;23.10;22.33;;;21.20;99.90;;;;;;5052642;28;20200;-66
2023/07/30 08:00:42;;;;;;;25.27;24.40;;;21.20;99.90;;;;;;5049927;28;20885;-66
2023/07/30 08:03:09;;;;;;;14.02;13.52;;;21.20;99.90;;;;;;5043211;28;20204;-65
2023/07/30 08:05:36;;;;;;;16.00;15.43;;;21.20;99.90;;;;;;5030366;28;20211;-67
2023/07/30 08:08:03;;;;;;;16.30;15.77;;;21.10;99.90;;;;;;5032884;28;20295;-64
2023/07/30 08:10:30;;;;;;;14.33;13.83;;;21.20;99.90;;;;;;5030366;28;20235;-64
2023/07/30 08:12:57;;;;;;;16.17;15.60;;;21.20;99.90;;;;;;5030763;28;20291;-65
2023/07/30 08:15:25;;;;;;;16.07;15.53;;;21.20;99.90;;;;;;5032406;28;20705;-64
2023/07/30 08:17:52;;;;;;;18.27;17.63;;;21.20;99.90;;;;;;5031316;28;20282;-64
2023/07/30 08:20:19;;;;;;;18.10;17.47;;;21.20;99.90;;;;;;5030121;28;20229;-66
2023/07/30 08:22:46;;;;;;;20.13;19.47;;;21.20;99.90;;;;;;5030082;28;20201;-64
2023/07/30 08:25:13;;;;;;;18.57;17.90;;;21.10;99.90;;;;;;5030393;28;20897;-67
2023/07/30 08:27:39;;;;;;;19.67;19.00;;;21.10;99.90;;;;;;5031111;28;20294;-66
2023/07/30 08:30:07;;;;;;;20.17;19.40;;;21.20;99.90;;;;;;5029718;28;20255;-64
2023/07/30 08:32:35;;;;;;;24.67;23.80;;;21.10;99.90;;;;;;5028018;28;20209;-65
2023/07/30 08:35:02;;;;;;;33.97;32.77;;;21.10;99.90;;;;;;5031742;28;20293;-65
2023/07/30 08:37:29;;;;;;;21.40;20.63;;;21.20;99.90;;;;;;5033024;28;20209;-66
2023/07/30 08:39:56;;;;;;;20.90;20.17;;;21.30;99.90;;;;;;5032818;28;20220;-62
2023/07/30 08:42:23;;;;;;;21.00;20.27;;;21.50;99.90;;;;;;5032035;28;20950;-61
2023/07/30 08:44:50;;;;;;;22.43;21.63;;;21.60;99.90;;;;;;5033125;28;20291;-61
2023/07/30 08:47:17;;;;;;;21.17;20.37;;;21.80;99.90;;;;;;5033617;28;20207;-62
2023/07/30 08:49:45;;;;;;;13.97;13.47;;;21.90;99.90;;;;;;5033639;28;20207;-62
2023/07/30 08:52:12;;;;;;;16.67;16.07;;;22.00;99.90;;;;;;5034765;28;20266;-61
2023/07/30 08:54:39;;;;;;;19.77;19.07;;;22.10;99.90;;;;;;5034855;28;20283;-62
2023/07/30 08:57:08;;;;;;;12.23;11.83;;;22.20;99.90;;;;;;5033089;28;20208;-62
2023/07/30 08:59:40;;;;;;;13.33;12.90;;;22.40;99.90;;;;;;5031901;28;20758;-63
2023/07/30 09:02:14;;;;;;;19.30;18.65;;;22.40;99.90;;;;;;5027089;28;20197;-63
2023/07/30 09:04:42;;;;;;;19.23;18.57;;;22.50;99.90;;;;;;5030899;28;20670;-62
2023/07/30 09:07:12;;;;;;;16.67;16.10;;;22.60;99.90;;;;;;5034021;28;20247;-61
2023/07/30 09:09:41;;;;;;;11.87;11.47;;;22.70;99.90;;;;;;5033005;28;20223;-61
2023/07/30 09:12:14;;;;;;;17.43;16.83;;;22.70;99.90;;;;;;5034188;28;20235;-62
2023/07/30 09:14:44;;;;;;;12.95;12.55;;;22.80;99.90;;;;;;5034074;28;20220;-62
2023/07/30 09:17:11;;;;;;;18.17;17.57;;;22.90;99.90;;;;;;5033196;28;20201;-62
2023/07/30 09:19:38;;;;;;;10.93;10.53;;;22.90;99.90;;;;;;5032146;28;20205;-61
2023/07/30 09:22:06;;;;;;;12.00;11.60;;;22.80;99.90;;;;;;5032571;28;20299;-61
2023/07/30 09:24:34;;;;;;;11.93;11.52;;;22.80;99.90;;;;;;5032541;28;20208;-61
2023/07/30 09:27:03;;;;;;;11.05;10.68;;;22.80;99.90;;;;;;5032547;28;20843;-62
2023/07/30 09:29:30;;;;;;;11.02;10.65;;;22.80;99.90;;;;;;5031672;28;20215;-62
2023/07/30 09:31:57;;;;;;;10.87;10.47;;;22.90;99.90;;;;;;5032719;28;20236;-63
2023/07/30 09:34:25;;;;;;;11.90;11.50;;;23.00;99.90;;;;;;5037078;28;20616;-62
2023/07/30 09:36:55;;;;;;;12.40;12.00;;;23.20;99.90;;;;;;5033083;28;20222;-61
2023/07/30 09:39:23;;;;;;;14.38;13.88;;;23.30;99.90;;;;;;5034113;28;20205;-62
2023/07/30 09:41:53;;;;;;;10.47;10.17;;;23.30;99.90;;;;;;5032752;28;20311;-63
2023/07/30 09:44:20;;;;;;;11.67;11.27;;;23.20;99.90;;;;;;5032229;28;20208;-62
2023/07/30 09:46:50;;;;;;;11.55;11.15;;;23.10;99.90;;;;;;5030143;28;20219;-62
2023/07/30 09:49:17;;;;;;;11.00;10.60;;;23.10;99.90;;;;;;5032322;28;20212;-61
2023/07/30 09:51:45;;;;;;;13.20;12.80;;;23.30;99.90;;;;;;5032447;28;20235;-62
2023/07/30 09:54:13;;;;;;;16.20;15.67;;;23.50;99.90;;;;;;5033320;28;20230;-63
2023/07/30 09:56:41;;;;;;;10.13;9.77;;;23.50;99.90;;;;;;5032635;28;20209;-62
2023/07/30 09:59:10;;;;;;;14.43;13.93;;;23.40;99.90;;;;;;5030560;28;20212;-62
2023/07/30 10:01:42;;;;;;;12.67;12.23;;;23.40;99.90;;;;;;5032444;28;20523;-62
2023/07/30 10:04:10;;;;;;;12.55;12.10;;;23.60;99.90;;;;;;5032359;28;20299;-62
2023/07/30 10:06:40;;;;;;;11.60;11.20;;;23.80;99.90;;;;;;5032310;28;20204;-62
2023/07/30 10:09:09;;;;;;;12.87;12.47;;;23.80;99.90;;;;;;5036887;28;20663;-60
2023/07/30 10:11:38;;;;;;;10.90;10.50;;;23.60;99.90;;;;;;5036633;28;20228;-62
2023/07/30 10:14:05;;;;;;;12.52;12.13;;;23.50;99.90;;;;;;5035254;28;20287;-61
2023/07/30 10:16:33;;;;;;;16.30;15.70;;;23.40;99.90;;;;;;5034118;28;20282;-60
2023/07/30 10:19:00;;;;;;;13.43;12.93;;;23.40;99.90;;;;;;5032730;28;20637;-60
2023/07/30 10:21:29;;;;;;;14.32;13.82;;;23.40;99.90;;;;;;5033277;28;20224;-61
2023/07/30 10:24:01;;;;;;;12.93;12.52;;;23.40;99.90;;;;;;5036669;28;20208;-61
2023/07/30 10:26:29;;;;;;;12.20;11.80;;;23.60;99.90;;;;;;5033844;28;20208;-62
2023/07/30 10:29:11;;;;;;;11.93;11.52;;;23.60;99.90;;;;;;5032314;28;20655;-61
2023/07/30 10:31:43;;;;;;;12.57;12.17;;;23.70;99.90;;;;;;5044840;28;20235;-61
2023/07/30 10:34:11;;;;;;;11.27;10.87;;;23.60;99.90;;;;;;5031864;28;20312;-60
2023/07/30 10:36:44;;;;;;;11.40;11.00;;;23.60;99.90;;;;;;5031302;28;21070;-61
2023/07/30 10:39:17;;;;;;;12.25;11.77;;;23.50;99.90;;;;;;5030288;28;20877;-61
2023/07/30 10:41:47;;;;;;;11.27;10.88;;;23.50;99.90;;;;;;5031779;28;20274;-62
2023/07/30 10:44:24;;;;;;;12.10;11.70;;;23.50;99.90;;;;;;5031568;28;20201;-62
2023/07/30 10:46:53;;;;;;;11.98;11.57;;;23.60;99.90;;;;;;5029107;28;20271;-62
2023/07/30 10:49:20;;;;;;;11.60;11.20;;;23.70;99.90;;;;;;5030474;28;20205;-61
2023/07/30 10:51:47;;;;;;;10.45;10.15;;;23.80;99.90;;;;;;5031386;28;20228;-62
2023/07/30 10:54:15;;;;;;;12.73;12.23;;;24.00;99.90;;;;;;5030441;28;20197;-62
2023/07/30 10:56:42;;;;;;;12.60;12.20;;;24.50;99.90;;;;;;5032210;28;20205;-63
2023/07/30 10:59:10;;;;;;;12.00;11.60;;;24.60;99.90;;;;;;5034338;28;20223;-63
2023/07/30 11:01:39;;;;;;;11.55;11.05;;;24.90;99.90;;;;;;5035616;28;20213;-61
2023/07/30 11:04:12;;;;;;;10.20;9.80;;;25.40;99.90;;;;;;5036405;28;20679;-61
2023/07/30 11:06:39;;;;;;;10.10;9.80;;;25.50;99.90;;;;;;5035723;28;20887;-60
2023/07/30 11:09:06;;;;;;;10.48;10.07;;;25.40;99.90;;;;;;5032128;28;20295;-62
2023/07/30 11:11:33;;;;;;;10.00;9.70;;;25.60;99.90;;;;;;5032002;28;20244;-62
2023/07/30 11:14:03;;;;;;;9.50;9.20;;;25.50;99.90;;;;;;5031865;28;20572;-62
2023/07/30 11:16:30;;;;;;;9.73;9.43;;;25.40;99.90;;;;;;5032119;28;20216;-62
2023/07/30 11:18:57;;;;;;;11.05;10.65;;;25.50;99.90;;;;;;5031442;28;20204;-62
2023/07/30 11:21:25;;;;;;;16.00;15.37;;;25.20;99.90;;;;;;5030285;28;20228;-61
2023/07/30 11:23:52;;;;;;;13.68;13.18;;;24.50;99.90;;;;;;5031101;28;20208;-61
2023/07/30 11:26:20;;;;;;;55.85;52.25;;;23.80;99.90;;;;;;5031875;28;20231;-61
2023/07/30 11:28:47;;;;;;;19.83;18.92;;;23.30;99.90;;;;;;5040294;28;20300;-63
2023/07/30 11:31:16;;;;;;;11.07;10.67;;;22.80;99.90;;;;;;5034380;28;20228;-64
2023/07/30 11:33:45;;;;;;;100.32;93.38;;;22.70;99.90;;;;;;5030395;28;20201;-63
2023/07/30 11:36:14;;;;;;;10.73;10.33;;;22.60;99.90;;;;;;5030603;28;20205;-64
2023/07/30 11:38:43;;;;;;;33.50;31.73;;;22.70;99.90;;;;;;5031931;28;20276;-64
2023/07/30 11:41:11;;;;;;;11.07;10.68;;;22.70;99.90;;;;;;5030954;28;20225;-65
2023/07/30 11:43:39;;;;;;;10.63;10.23;;;22.60;99.90;;;;;;5031349;28;20578;-64
2023/07/30 11:46:12;;;;;;;13.77;13.27;;;22.70;99.90;;;;;;5031130;28;20208;-64
2023/07/30 11:48:40;;;;;;;13.40;12.90;;;22.80;99.90;;;;;;5031160;28;20209;-64
2023/07/30 11:51:07;;;;;;;24.33;23.27;;;22.80;99.90;;;;;;5030174;28;20236;-64
2023/07/30 11:53:49;;;;;;;65.53;62.40;;;22.80;99.90;;;;;;5030732;28;20205;-64
2023/07/30 11:56:21;;;;;;;58.92;56.15;;;22.70;99.90;;;;;;5033363;28;20246;-64
2023/07/30 11:58:49;;;;;;;13.75;13.25;;;22.70;99.90;;;;;;5030784;28;20220;-64
2023/07/30 12:01:16;;;;;;;43.67;41.53;;;22.60;99.90;;;;;;5030952;28;20231;-63
2023/07/30 12:03:43;;;;;;;15.18;14.68;;;22.40;99.90;;;;;;5034547;28;20214;-64
2023/07/30 12:06:11;;;;;;;15.60;15.07;;;22.40;99.90;;;;;;5035647;28;20232;-64
2023/07/30 12:08:39;;;;;;;71.57;67.97;;;22.60;99.90;;;;;;5034763;28;20635;-62
2023/07/30 12:11:08;;;;;;;142.30;134.70;;;22.70;99.90;;;;;;5030476;28;20224;-65
2023/07/30 12:13:42;;;;;;;11.30;10.90;;;22.90;99.90;;;;;;5032375;28;20693;-64
2023/07/30 12:16:09;;;;;;;15.33;14.77;;;23.00;99.90;;;;;;5034429;28;20200;-64
2023/07/30 12:18:36;;;;;;;71.90;68.10;;;23.30;99.90;;;;;;5034593;28;20566;-63
2023/07/30 12:21:04;;;;;;;13.13;12.73;;;23.30;99.90;;;;;;5033620;28;20247;-66
2023/07/30 12:23:31;;;;;;;46.25;43.55;;;23.40;99.90;;;;;;5034635;28;20209;-64
2023/07/30 12:25:58;;;;;;;17.00;16.33;;;23.30;99.90;;;;;;5034322;28;20320;-63
2023/07/30 12:28:26;;;;;;;11.90;11.50;;;23.00;99.90;;;;;;5034395;28;20295;-64
2023/07/30 12:30:53;;;;;;;100.63;95.37;;;23.00;99.90;;;;;;5042550;28;20235;-64